aviador You're here:

LYKV Decoded Metar

KRALJEVO/LADEVCI in SERBIA
Report Time2017-11-20 22:30:00
UTC Time2017-11-20 23:05:50
Flight Rules vfr VFR
WindVRB at 01 kt
Visibility9999 m
Phenomena:N/A
Clouds:N/A
Expected CloudBase > 400 ft AGL from Temp-Dew spread
CeilingNone
Temp-2°C (ISA -16)
Dew Point-3°C (93% RH)
AAT-4.7°C
QNH1021 hPa
Density Alt-1,424 ft
Elevation694 ft
Report Wrong Elevation
Raw Report
METAR LYKV 202230Z VRB01KT CAVOK M02/M03 Q1021 NOSIG=

Extra information for LYKV:More info

Metar Taf Metar & Taf Last 4 Metars F.Rules Stats Wind Profile Meteogram Temp Stats Airport Information Weather charts Add Link Nearby VenuesMetar ALERT Operation Metar Decoded Social comments